createdAt,value
2019-05-17T00:00:12.090Z,98.1
2019-05-17T00:01:16.496Z,98.2
2019-05-17T00:02:18.485Z,98.2
2019-05-17T00:03:20.346Z,98.3
2019-05-17T00:04:22.211Z,98.2
2019-05-17T00:05:26.353Z,98.2
2019-05-17T00:06:28.354Z,98.1
2019-05-17T00:07:30.250Z,98.1
2019-05-17T00:08:38.050Z,98.1
2019-05-17T00:09:40.019Z,98.1
2019-05-17T00:10:41.595Z,98.2
2019-05-17T00:11:43.454Z,98.2
2019-05-17T00:12:47.519Z,98.1
2019-05-17T00:13:49.382Z,98
2019-05-17T00:14:50.971Z,98
2019-05-17T00:15:52.838Z,98
2019-05-17T00:16:57.857Z,97.9
2019-05-17T00:17:59.717Z,98.1
2019-05-17T00:19:01.585Z,98.1
2019-05-17T00:20:03.445Z,98.1
2019-05-17T00:21:08.259Z,98.1
2019-05-17T00:22:10.126Z,98.1
2019-05-17T00:23:11.987Z,98.1
2019-05-17T00:24:13.847Z,98.1
2019-05-17T00:25:17.194Z,98.1
2019-05-17T00:26:19.061Z,98.1
2019-05-17T00:27:20.923Z,98.1
2019-05-17T00:28:22.787Z,98.1
2019-05-17T00:29:26.313Z,98.1
2019-05-17T00:30:28.284Z,98.1
2019-05-17T00:31:30.147Z,98.1
2019-05-17T00:32:31.455Z,98.2
2019-05-17T00:33:33.315Z,98.1
2019-05-17T00:34:34.898Z,98.1
2019-05-17T00:35:39.010Z,98.1
2019-05-17T00:36:40.873Z,98
2019-05-17T00:37:42.746Z,98.1
2019-05-17T00:38:51.716Z,98
2019-05-17T00:39:53.583Z,98
2019-05-17T00:40:57.709Z,98
2019-05-17T00:41:59.570Z,98
2019-05-17T00:43:01.142Z,98
2019-05-17T00:44:03.010Z,98.2
2019-05-17T00:45:07.369Z,98.2
2019-05-17T00:46:09.232Z,98.2
2019-05-17T00:47:11.095Z,98.1
2019-05-17T00:48:12.957Z,98.2
2019-05-17T00:49:16.889Z,98.2
2019-05-17T00:50:18.857Z,98.2
2019-05-17T00:51:20.720Z,98.1
2019-05-17T00:52:22.581Z,98.1
2019-05-17T00:53:26.750Z,98.1
2019-05-17T00:54:28.768Z,98.1
2019-05-17T00:55:30.630Z,98.1
2019-05-17T00:56:32.501Z,98
2019-05-17T00:57:33.803Z,98
2019-05-17T00:58:38.174Z,98
2019-05-17T00:59:40.047Z,98
2019-05-17T01:00:41.635Z,98
2019-05-17T01:01:43.496Z,98
2019-05-17T01:02:47.526Z,98.1
2019-05-17T01:03:49.388Z,98.1
2019-05-17T01:04:51.251Z,98.1
2019-05-17T01:05:53.114Z,98.1
2019-05-17T01:06:56.813Z,98.1
2019-05-17T01:07:58.674Z,98.1
2019-05-17T01:09:04.458Z,98.1
2019-05-17T01:10:08.670Z,98
2019-05-17T01:11:10.531Z,98.1
2019-05-17T01:12:12.393Z,98
2019-05-17T01:13:14.254Z,98.1
2019-05-17T01:14:17.998Z,98
2019-05-17T01:15:19.862Z,98
2019-05-17T01:16:21.725Z,97.9
2019-05-17T01:17:23.589Z,97.8
2019-05-17T01:18:27.469Z,97.8
2019-05-17T01:19:29.383Z,97.7
2019-05-17T01:20:30.978Z,97.7
2019-05-17T01:21:32.838Z,97.8
2019-05-17T01:22:36.519Z,97.8
2019-05-17T01:23:38.509Z,97.9
2019-05-17T01:24:40.382Z,98
2019-05-17T01:25:42.243Z,97.9
2019-05-17T01:26:44.105Z,98
2019-05-17T01:27:48.170Z,97.9
2019-05-17T01:28:50.041Z,98
2019-05-17T01:29:51.637Z,98
2019-05-17T01:30:52.962Z,98.1
2019-05-17T01:31:56.943Z,98.1
2019-05-17T01:32:58.970Z,98
2019-05-17T01:34:00.836Z,98
2019-05-17T01:35:02.693Z,98
2019-05-17T01:36:07.201Z,98
2019-05-17T01:37:08.787Z,98
2019-05-17T01:38:10.373Z,98
2019-05-17T01:39:21.294Z,98
2019-05-17T01:40:23.282Z,98
2019-05-17T01:41:27.334Z,98
2019-05-17T01:42:29.194Z,98
2019-05-17T01:43:30.779Z,98
2019-05-17T01:44:32.641Z,98
2019-05-17T01:45:36.963Z,97.9
2019-05-17T01:46:38.818Z,98
2019-05-17T01:47:40.686Z,98.1
2019-05-17T01:48:42.544Z,98
2019-05-17T01:49:46.798Z,98
2019-05-17T01:50:48.831Z,97.9
2019-05-17T01:51:50.694Z,97.9
2019-05-17T01:52:52.557Z,97.8
2019-05-17T01:53:54.416Z,97.9
2019-05-17T01:54:58.653Z,97.9
2019-05-17T01:56:00.515Z,97.9
2019-05-17T01:57:02.378Z,97.9
2019-05-17T01:58:04.247Z,97.9
2019-05-17T01:59:08.605Z,97.8
2019-05-17T02:00:10.472Z,97.9
2019-05-17T02:01:12.333Z,97.9
2019-05-17T02:02:16.294Z,97.8
2019-05-17T02:03:17.988Z,97.8
2019-05-17T02:04:19.015Z,97.9
2019-05-17T02:05:20.877Z,97.9
2019-05-17T02:06:22.748Z,97.9
2019-05-17T02:07:27.166Z,97.8
2019-05-17T02:08:28.751Z,97.9
2019-05-17T02:09:41.516Z,97.9
2019-05-17T02:10:43.610Z,97.9
2019-05-17T02:11:47.469Z,98
2019-05-17T02:12:49.686Z,98
2019-05-17T02:13:51.548Z,98
2019-05-17T02:14:53.411Z,97.9
2019-05-17T02:15:56.960Z,98
2019-05-17T02:16:58.821Z,98
2019-05-17T02:18:00.692Z,97.9
2019-05-17T02:19:02.548Z,97.8
2019-05-17T02:20:06.842Z,97.8
2019-05-17T02:21:08.702Z,97.9
2019-05-17T02:22:10.562Z,97.8
2019-05-17T02:23:12.424Z,97.9
2019-05-17T02:24:16.770Z,97.8
2019-05-17T02:25:18.742Z,97.8
2019-05-17T02:26:20.603Z,97.9
2019-05-17T02:27:28.355Z,97.9
2019-05-17T02:28:45.347Z,97.9
2019-05-17T02:29:46.921Z,97.9
2019-05-17T02:30:48.783Z,97.9
2019-05-17T02:31:54.355Z,97.9
2019-05-17T02:32:56.218Z,97.9
2019-05-17T02:33:58.080Z,97.9
2019-05-17T02:35:03.757Z,97.9
2019-05-17T02:36:05.626Z,97.8
2019-05-17T02:37:08.557Z,97.9
2019-05-17T02:38:13.622Z,97.9
2019-05-17T02:39:15.471Z,97.9
2019-05-17T02:40:16.767Z,97.9
2019-05-17T02:41:18.635Z,97.9
2019-05-17T02:42:23.984Z,97.8
2019-05-17T02:43:25.836Z,97.8
2019-05-17T02:44:27.696Z,97.8
2019-05-17T02:45:32.343Z,97.8
2019-05-17T02:46:34.797Z,97.7
2019-05-17T02:47:36.656Z,97.7
2019-05-17T02:48:38.251Z,97.7
2019-05-17T02:49:42.861Z,97.7
2019-05-17T02:50:48.596Z,97.6
2019-05-17T02:51:54.034Z,97.6
2019-05-17T02:52:55.618Z,97.6
2019-05-17T02:53:57.485Z,97.7
2019-05-17T02:54:59.360Z,97.7
2019-05-17T02:56:05.260Z,97.7
2019-05-17T02:57:07.122Z,97.7
2019-05-17T02:58:08.722Z,97.8
2019-05-17T02:59:14.232Z,97.7
2019-05-17T03:00:15.880Z,97.6
2019-05-17T03:01:17.195Z,97.7
2019-05-17T03:02:19.341Z,97.7
2019-05-17T03:03:28.981Z,97.7
2019-05-17T03:04:33.680Z,97.7
2019-05-17T03:05:35.540Z,97.7
2019-05-17T03:06:37.404Z,97.8
2019-05-17T03:07:39.267Z,97.8
2019-05-17T03:08:45.324Z,97.8
2019-05-17T03:09:47.225Z,97.7
2019-05-17T03:10:49.083Z,97.6
2019-05-17T03:11:57.661Z,97.6
2019-05-17T03:12:59.528Z,97.6
2019-05-17T03:14:05.461Z,97.6
2019-05-17T03:15:07.336Z,97.6
2019-05-17T03:16:09.193Z,97.6
2019-05-17T03:17:14.456Z,97.6
2019-05-17T03:18:16.315Z,97.6
2019-05-17T03:19:18.178Z,97.5
2019-05-17T03:20:23.645Z,97.6
2019-05-17T03:21:25.504Z,97.5
2019-05-17T03:22:27.375Z,97.6
2019-05-17T03:23:32.640Z,97.5
2019-05-17T03:24:34.632Z,97.6
2019-05-17T03:25:36.511Z,97.6
2019-05-17T03:26:38.357Z,97.6
2019-05-17T03:27:43.524Z,97.6
2019-05-17T03:28:45.500Z,97.7
2019-05-17T03:29:47.364Z,97.7
2019-05-17T03:30:49.223Z,97.6
2019-05-17T03:32:07.943Z,97.6
2019-05-17T03:33:18.902Z,97.5
2019-05-17T03:34:27.877Z,97.6
2019-05-17T03:35:29.491Z,97.5
2019-05-17T03:36:39.772Z,97.5
2019-05-17T03:37:48.426Z,97.5
2019-05-17T03:38:54.049Z,97.6
2019-05-17T03:39:55.350Z,97.6
2019-05-17T03:41:23.123Z,97.7
2019-05-17T03:42:34.088Z,97.6
2019-05-17T03:43:43.412Z,97.7
2019-05-17T03:44:45.654Z,97.6
2019-05-17T03:45:47.520Z,97.5
2019-05-17T03:46:49.106Z,97.5
2019-05-17T03:47:54.500Z,97.5
2019-05-17T03:48:56.360Z,97.5
2019-05-17T03:49:58.273Z,97.5
2019-05-17T03:51:03.894Z,97.5
2019-05-17T03:52:05.483Z,97.4
2019-05-17T03:53:07.348Z,97.3
2019-05-17T03:54:09.208Z,97.4
2019-05-17T03:55:15.090Z,97.4
2019-05-17T03:56:16.671Z,97.4
2019-05-17T03:57:18.529Z,97.3
2019-05-17T03:58:23.903Z,97.3
2019-05-17T03:59:25.746Z,97.2
2019-05-17T04:00:27.607Z,97.3
2019-05-17T04:01:32.575Z,97.4
2019-05-17T04:02:34.573Z,97.3
2019-05-17T04:03:36.440Z,97.1
2019-05-17T04:04:38.017Z,97.3
2019-05-17T04:05:43.185Z,97.3
2019-05-17T04:06:44.525Z,97.3
2019-05-17T04:07:46.384Z,97.1
2019-05-17T04:08:48.248Z,97.2
2019-05-17T04:09:53.626Z,97.1
2019-05-17T04:10:55.488Z,97.1
2019-05-17T04:11:57.344Z,97.1
2019-05-17T04:12:59.207Z,97.2
2019-05-17T04:14:04.845Z,97.3
2019-05-17T04:15:06.696Z,97.3
2019-05-17T04:16:13.709Z,97.3
2019-05-17T04:17:15.600Z,97.3
2019-05-17T04:18:16.900Z,97.1
2019-05-17T04:19:18.765Z,97
2019-05-17T04:20:23.799Z,96.9
2019-05-17T04:21:25.658Z,97
2019-05-17T04:22:27.522Z,97.1
2019-05-17T04:23:29.380Z,97
2019-05-17T04:24:35.125Z,96.8
2019-05-17T04:25:39.423Z,96.7
2019-05-17T04:26:44.634Z,96.8
2019-05-17T04:27:46.522Z,96.7
2019-05-17T04:28:48.423Z,96.7
2019-05-17T04:29:53.693Z,96.6
2019-05-17T04:30:55.555Z,96.7
2019-05-17T04:31:56.843Z,96.6
2019-05-17T04:32:58.700Z,96.5
2019-05-17T04:34:04.224Z,96.6
2019-05-17T04:35:06.081Z,96.5
2019-05-17T04:36:07.943Z,96.6
2019-05-17T04:37:09.804Z,96.7
2019-05-17T04:38:14.378Z,96.6
2019-05-17T04:39:16.244Z,96.7
2019-05-17T04:40:17.831Z,96.8
2019-05-17T04:41:46.743Z,96.7
2019-05-17T04:42:56.114Z,96.8
2019-05-17T04:43:57.972Z,96.7
2019-05-17T04:45:04.431Z,96.5
2019-05-17T04:46:06.291Z,96.7
2019-05-17T04:47:07.876Z,96.7
2019-05-17T04:48:12.819Z,96.5
2019-05-17T04:49:14.976Z,96.7
2019-05-17T04:50:16.566Z,96.7
2019-05-17T04:51:17.894Z,96.5
2019-05-17T04:52:23.185Z,96.5
2019-05-17T04:53:25.047Z,96.5
2019-05-17T04:54:26.912Z,96.5
2019-05-17T04:55:28.778Z,96.6
2019-05-17T04:56:33.834Z,96.4
2019-05-17T04:57:35.680Z,96.4
2019-05-17T04:58:37.541Z,96.6
2019-05-17T04:59:39.405Z,96.6
2019-05-17T05:00:44.606Z,96.4
2019-05-17T05:01:46.174Z,96.4
2019-05-17T05:02:48.033Z,96.3
2019-05-17T05:03:52.890Z,96.4
2019-05-17T05:04:54.758Z,96.3
2019-05-17T05:05:56.621Z,96.2
2019-05-17T05:06:58.478Z,96.3
2019-05-17T05:08:03.616Z,96.3
2019-05-17T05:09:05.504Z,96.3
2019-05-17T05:10:07.365Z,96.3
2019-05-17T05:11:09.229Z,96.4
2019-05-17T05:12:14.013Z,96.2
2019-05-17T05:13:15.914Z,96.2
2019-05-17T05:14:17.775Z,96.3
2019-05-17T05:15:22.188Z,96.3
2019-05-17T05:16:24.407Z,96
2019-05-17T05:17:26.267Z,96.2
2019-05-17T05:18:27.865Z,96.1
2019-05-17T05:19:29.451Z,96.1
2019-05-17T05:20:34.203Z,96.1
2019-05-17T05:21:36.078Z,96.1
2019-05-17T05:22:37.939Z,96.2
2019-05-17T05:23:39.801Z,96.3
2019-05-17T05:24:43.759Z,96.2
2019-05-17T05:25:45.623Z,96.3
2019-05-17T05:26:47.481Z,96.4
2019-05-17T05:27:51.583Z,96.3
2019-05-17T05:28:53.545Z,96.2
2019-05-17T05:29:55.407Z,96.4
2019-05-17T05:30:56.990Z,96.2
2019-05-17T05:31:58.855Z,96
2019-05-17T05:33:03.478Z,96.1
2019-05-17T05:34:05.368Z,95.9
2019-05-17T16:04:54.965Z,74.9
2019-05-17T16:05:56.561Z,76
2019-05-17T16:06:58.437Z,75.3
2019-05-17T16:08:00.029Z,74.9
2019-05-17T16:09:01.937Z,74.7
2019-05-17T16:10:04.069Z,74.4
2019-05-17T16:11:05.948Z,74.5
2019-05-17T16:12:07.508Z,75
2019-05-17T16:13:09.095Z,75.9
2019-05-17T16:14:10.964Z,75.7
2019-05-17T16:15:12.831Z,75.8
2019-05-17T16:16:14.701Z,75.4
2019-05-17T16:17:16.572Z,74.7
2019-05-17T16:18:18.441Z,75
2019-05-17T16:19:20.354Z,75.1
2019-05-17T16:20:21.953Z,75.2
2019-05-17T16:21:23.832Z,75.4
2019-05-17T16:22:25.427Z,74.5
2019-05-17T16:23:27.300Z,74.8
2019-05-17T16:24:29.170Z,75.5
2019-05-17T16:25:34.385Z,75.8
2019-05-17T16:26:35.701Z,75
2019-05-17T16:27:37.297Z,75.3
2019-05-17T16:28:38.897Z,75.8
2019-05-17T16:29:40.816Z,76.3
2019-05-17T16:30:42.112Z,76.2
2019-05-17T16:31:43.991Z,76.5
2019-05-17T16:32:45.901Z,76.6
2019-05-17T16:33:51.319Z,75.9
2019-05-17T16:34:53.183Z,76.8
2019-05-17T16:35:55.054Z,76.8
2019-05-17T16:36:56.935Z,76.3
2019-05-17T16:37:58.528Z,75.9
2019-05-17T16:39:00.399Z,76.2
2019-05-17T16:40:02.268Z,76.4
2019-05-17T16:41:04.187Z,76.3
2019-05-17T16:42:05.837Z,76
2019-05-17T16:43:18.837Z,76.3
2019-05-17T16:44:20.719Z,76.6
2019-05-17T16:45:22.596Z,77.2
2019-05-17T16:46:24.473Z,77
2019-05-17T16:47:26.360Z,77
2019-05-17T16:48:27.950Z,77
2019-05-17T16:49:29.820Z,76.8
2019-05-17T16:50:31.686Z,76.6
2019-05-17T16:51:33.658Z,76
2019-05-17T16:52:35.573Z,75.9
2019-05-17T16:53:37.164Z,76.5
2019-05-17T16:54:39.043Z,76.6
2019-05-17T16:55:41.120Z,76.5
2019-05-17T16:56:42.988Z,76.9
2019-05-17T16:57:44.865Z,77
2019-05-17T16:58:46.742Z,76.6
2019-05-17T16:59:48.610Z,77
2019-05-17T17:00:50.209Z,76.9
2019-05-17T17:01:52.070Z,77.2
2019-05-17T17:02:53.664Z,77.4
2019-05-17T17:03:55.254Z,77.5
2019-05-17T17:04:57.125Z,77.5
2019-05-17T17:05:58.725Z,77.9
2019-05-17T17:06:59.762Z,77.8
2019-05-17T17:08:01.642Z,77.2
2019-05-17T17:09:02.955Z,76.9
2019-05-17T17:10:04.825Z,77.3
2019-05-17T17:11:06.418Z,77.6
2019-05-17T17:12:08.288Z,77.3
2019-05-17T17:13:10.160Z,77.6
2019-05-17T17:14:12.026Z,77.2
2019-05-17T17:15:13.899Z,76.9
2019-05-17T17:16:15.776Z,77.4
2019-05-17T17:17:17.650Z,77.1
2019-05-17T17:18:19.527Z,76.8
2019-05-17T17:19:20.850Z,76
2019-05-17T17:20:21.886Z,76.6
2019-05-17T17:21:23.830Z,77
2019-05-17T17:22:25.434Z,77.1
2019-05-17T17:23:27.300Z,77
2019-05-17T17:24:29.175Z,77.6
2019-05-17T17:25:31.057Z,77.5
2019-05-17T17:26:32.935Z,77.6
2019-05-17T17:27:34.813Z,77.6
2019-05-17T17:28:36.691Z,77.6
2019-05-17T17:29:38.284Z,77.5
2019-05-17T17:30:39.889Z,77.3
2019-05-17T17:31:40.643Z,77.1
2019-05-17T17:32:42.511Z,77.4
2019-05-17T17:33:44.382Z,78
2019-05-17T17:34:46.260Z,78
2019-05-17T17:35:48.122Z,77.9
2019-05-17T17:36:49.992Z,77.6
2019-05-17T17:37:51.586Z,77.7
2019-05-17T17:38:53.453Z,77.4
2019-05-17T17:39:55.338Z,77.8
2019-05-17T17:40:57.209Z,78.4
2019-05-17T17:41:58.814Z,78
2019-05-17T17:42:59.876Z,77.7
2019-05-17T17:44:01.736Z,77.8
2019-05-17T17:45:03.610Z,78.4
2019-05-17T17:46:05.473Z,78.8
2019-05-17T17:47:07.343Z,79.1
2019-05-17T17:48:08.934Z,79.2
2019-05-17T17:49:10.805Z,78.7
2019-05-17T17:50:12.670Z,78.3
2019-05-17T17:51:14.559Z,78.6
2019-05-17T17:52:16.178Z,78.7
2019-05-17T17:53:17.810Z,78.7
2019-05-17T17:54:19.404Z,78.9
2019-05-17T17:55:21.279Z,79.3
2019-05-17T17:56:23.177Z,79.6
2019-05-17T17:57:25.176Z,79.9
2019-05-17T17:58:27.045Z,80
2019-05-17T17:59:28.902Z,79.9
2019-05-17T18:00:30.776Z,79.1
2019-05-17T18:01:32.655Z,79.2
2019-05-17T18:02:34.525Z,79.6
2019-05-17T18:03:36.145Z,79.9
2019-05-17T18:04:37.467Z,80.1
2019-05-17T18:05:39.340Z,80.1
2019-05-17T18:06:41.211Z,80.7
2019-05-17T18:07:43.081Z,80.6
2019-05-17T18:08:45.012Z,80.2
2019-05-17T18:09:46.607Z,80.3
2019-05-17T18:10:48.480Z,80.2
2019-05-17T18:11:50.075Z,80
2019-05-17T18:12:51.945Z,80.2
2019-05-17T18:13:53.552Z,80.5
2019-05-17T18:14:55.533Z,80.5
2019-05-17T18:15:57.128Z,80.6
2019-05-17T18:16:58.997Z,79.9
2019-05-17T18:18:00.870Z,79.7
2019-05-17T18:19:02.737Z,79.6
2019-05-17T18:20:04.329Z,79.6
2019-05-17T18:21:06.201Z,80
2019-05-17T18:22:08.108Z,80
2019-05-17T18:23:09.701Z,80.1
2019-05-17T18:24:11.574Z,79.7
2019-05-17T18:25:13.468Z,79.6
2019-05-17T18:26:15.098Z,79.3
2019-05-17T18:27:16.715Z,79.2
2019-05-17T18:28:18.581Z,79.3
2019-05-17T18:29:20.171Z,79.6
2019-05-17T18:30:22.049Z,80.1
2019-05-17T18:31:23.923Z,80.3
2019-05-17T18:32:25.798Z,80
2019-05-17T18:33:27.668Z,79.8
2019-05-17T18:34:29.268Z,80
2019-05-17T18:35:31.140Z,80.3
2019-05-17T18:36:33.026Z,80.3
2019-05-17T18:37:34.666Z,80.2
2019-05-17T18:38:36.257Z,80
2019-05-17T18:39:38.182Z,80.2
2019-05-17T18:40:40.059Z,80.2
2019-05-17T18:41:41.934Z,80.2
2019-05-17T18:42:43.826Z,80.1
2019-05-17T18:43:45.685Z,80.1
2019-05-17T18:44:47.562Z,80.1
2019-05-17T18:45:49.577Z,80.1
2019-05-17T18:46:51.169Z,80.2
2019-05-17T18:47:52.875Z,80.5
2019-05-17T18:48:55.021Z,80.5
2019-05-17T18:49:56.893Z,80.7
2019-05-17T18:50:58.770Z,81
2019-05-17T18:52:00.639Z,80.8
2019-05-17T18:53:04.068Z,80.9
2019-05-17T18:54:17.147Z,80.9
2019-05-17T18:55:19.015Z,81
2019-05-17T18:56:20.609Z,81.4
2019-05-17T18:57:22.480Z,81.5
2019-05-17T18:58:24.351Z,81.9
2019-05-17T18:59:26.223Z,82.3
2019-05-17T19:00:28.101Z,82.2
2019-05-17T19:01:30.011Z,82.2
2019-05-17T19:02:31.881Z,81.4
2019-05-17T19:03:33.756Z,82.3
2019-05-17T19:04:35.347Z,82.1
2019-05-17T19:05:36.938Z,82.2
2019-05-17T19:06:38.816Z,82.3
2019-05-17T19:07:40.395Z,82.5
2019-05-17T19:08:42.259Z,82.1
2019-05-17T19:09:44.156Z,82
2019-05-17T19:10:46.065Z,81.8
2019-05-17T19:11:47.653Z,81.9
2019-05-17T19:12:49.523Z,81.7
2019-05-17T19:13:51.114Z,82.1
2019-05-17T19:14:52.983Z,81.9
2019-05-17T19:15:54.855Z,82
2019-05-17T19:16:56.720Z,82.1
2019-05-17T19:17:58.590Z,82.4
2019-05-17T19:19:00.464Z,82.1
2019-05-17T19:20:02.331Z,82.1
2019-05-17T19:21:04.197Z,82.1
2019-05-17T19:22:06.065Z,82.3
2019-05-17T19:23:07.936Z,82.2
2019-05-17T19:24:09.802Z,82.1
2019-05-17T19:25:11.668Z,82.3
2019-05-17T19:26:13.535Z,82.2
2019-05-17T19:27:15.404Z,82.5
2019-05-17T19:28:17.274Z,82.6
2019-05-17T19:29:19.143Z,82.6
2019-05-17T19:30:20.734Z,82.7
2019-05-17T19:31:22.754Z,82.7
2019-05-17T19:32:24.629Z,82.7
2019-05-17T19:33:26.506Z,82.9
2019-05-17T19:34:28.387Z,82.7
2019-05-17T19:35:30.296Z,82.9
2019-05-17T19:36:32.162Z,83
2019-05-17T19:37:34.028Z,83
2019-05-17T19:38:35.894Z,83.1
2019-05-17T19:39:37.764Z,83.4
2019-05-17T19:40:39.635Z,83.6
2019-05-17T19:41:41.527Z,83.6
2019-05-17T19:42:43.370Z,83.8
2019-05-17T19:43:45.238Z,84
2019-05-17T19:44:59.725Z,84.1
2019-05-17T19:46:01.304Z,84.4
2019-05-17T19:47:03.172Z,84.8
2019-05-17T19:48:05.043Z,84.9
2019-05-17T19:49:06.345Z,85.3
2019-05-17T19:50:08.226Z,85.3
2019-05-17T19:51:10.096Z,85.5
2019-05-17T19:52:11.966Z,85.9
2019-05-17T19:53:13.833Z,85.9
2019-05-17T19:54:15.414Z,85.6
2019-05-17T19:55:17.279Z,85.6
2019-05-17T19:56:19.148Z,85.4
2019-05-17T19:57:21.044Z,85.4
2019-05-17T19:58:22.949Z,85.4
2019-05-17T19:59:24.815Z,85.3
2019-05-17T20:00:26.687Z,85.3
2019-05-17T20:01:28.551Z,85.3
2019-05-17T20:02:30.423Z,85.2
2019-05-17T20:03:32.008Z,85.5
2019-05-17T20:04:33.583Z,85.4
2019-05-17T20:05:35.178Z,85.6
2019-05-17T20:06:37.042Z,85.6
2019-05-17T20:07:39.891Z,85.5
2019-05-17T20:08:41.766Z,85.4
2019-05-17T20:09:43.078Z,85.6
2019-05-17T20:10:44.679Z,85.7
2019-05-17T20:11:46.542Z,85.8
2019-05-17T20:12:48.433Z,86
2019-05-17T20:13:50.300Z,86.1
2019-05-17T20:14:52.170Z,86
2019-05-17T20:15:54.052Z,86.1
2019-05-17T20:16:55.919Z,85.8
2019-05-17T20:17:57.786Z,86.2
2019-05-17T20:18:59.653Z,86.3
2019-05-17T20:20:01.536Z,86.3
2019-05-17T20:21:03.396Z,86.2
2019-05-17T20:22:05.254Z,86.4
2019-05-17T20:23:06.831Z,86.6
2019-05-17T20:24:08.698Z,86.5
2019-05-17T20:25:10.564Z,86.6
2019-05-17T20:26:12.153Z,86.8
2019-05-17T20:27:14.025Z,86.8
2019-05-17T20:28:15.893Z,86.9
2019-05-17T20:29:17.487Z,87
2019-05-17T20:30:19.078Z,87.2
2019-05-17T20:31:20.949Z,87.3
2019-05-17T20:32:22.814Z,87.3
2019-05-17T20:33:24.403Z,87.5
2019-05-17T20:34:26.275Z,87.6
2019-05-17T20:35:28.142Z,87.8
2019-05-17T20:36:29.738Z,87.8
2019-05-17T20:37:31.317Z,87.7
2019-05-17T20:38:33.181Z,87.8
2019-05-17T20:39:34.769Z,88
2019-05-17T20:40:36.635Z,87.7
2019-05-17T20:41:38.014Z,87.7
2019-05-17T20:42:39.042Z,87.7
2019-05-17T20:43:40.666Z,87.7
2019-05-17T20:44:42.533Z,87.8
2019-05-17T20:45:44.401Z,87.8
2019-05-17T20:46:46.265Z,87.8
2019-05-17T20:47:48.132Z,87.7
2019-05-17T20:48:49.731Z,87.7
2019-05-17T20:49:51.590Z,87.8
2019-05-17T20:50:53.460Z,87.8
2019-05-17T20:51:55.354Z,87.9
2019-05-17T20:52:56.965Z,88
2019-05-17T20:53:58.877Z,88.1
2019-05-17T20:55:00.755Z,88
2019-05-17T20:56:03.042Z,87.4
2019-05-17T20:57:04.894Z,88.1
2019-05-17T20:58:06.774Z,88.2
2019-05-17T20:59:08.646Z,88
2019-05-17T21:00:10.515Z,88.2
2019-05-17T21:01:12.384Z,88.2
2019-05-17T21:02:14.261Z,88.2
2019-05-17T21:03:16.138Z,88.2
2019-05-17T21:04:17.728Z,88.1
2019-05-17T21:05:19.597Z,88.1
2019-05-17T21:06:21.255Z,88.1
2019-05-17T21:07:23.121Z,88.1
2019-05-17T21:08:27.243Z,88.5
2019-05-17T21:09:29.116Z,88.4
2019-05-17T21:10:30.984Z,88.4
2019-05-17T21:11:32.853Z,88.6
2019-05-17T21:12:34.725Z,88.6
2019-05-17T21:13:36.602Z,88.5
2019-05-17T21:14:38.199Z,88.3
2019-05-17T21:15:48.308Z,88.4
2019-05-17T21:16:50.199Z,88.5
2019-05-17T21:17:52.089Z,88.7
2019-05-17T21:18:53.952Z,88.7
2019-05-17T21:19:55.821Z,88.7
2019-05-17T21:20:57.696Z,88.7
2019-05-17T21:21:59.562Z,88.8
2019-05-17T21:23:01.433Z,88.8
2019-05-17T21:24:02.744Z,88.9
2019-05-17T21:25:04.608Z,89
2019-05-17T21:26:06.477Z,88.9
2019-05-17T21:27:08.347Z,89
2019-05-17T21:28:10.226Z,89.3
2019-05-17T21:29:12.095Z,89.4
2019-05-17T21:30:13.963Z,89.2
2019-05-17T21:31:15.832Z,89.3
2019-05-17T21:32:17.147Z,89.3
2019-05-17T21:33:19.020Z,89.6
2019-05-17T21:34:20.889Z,89.7
2019-05-17T21:35:22.758Z,89.8
2019-05-17T21:36:24.638Z,89.9
2019-05-17T21:37:26.498Z,89.8
2019-05-17T21:38:28.369Z,89.9
2019-05-17T21:39:30.239Z,89.9
2019-05-17T21:40:32.110Z,90
2019-05-17T21:41:33.978Z,90
2019-05-17T21:42:35.590Z,90.1
2019-05-17T21:43:37.440Z,90.1
2019-05-17T21:44:39.312Z,90.1
2019-05-17T21:45:41.222Z,90.2
2019-05-17T21:46:43.094Z,90.3
2019-05-17T21:47:44.708Z,90.5
2019-05-17T21:48:46.031Z,90.5
2019-05-17T21:49:47.627Z,90.5
2019-05-17T21:50:49.500Z,90.5
2019-05-17T21:51:51.098Z,90.5
2019-05-17T21:52:52.977Z,90.5
2019-05-17T21:53:54.851Z,90.5
2019-05-17T21:54:56.719Z,90.5
2019-05-17T21:55:58.598Z,90.6
2019-05-17T21:57:00.480Z,90.5
2019-05-17T21:58:02.347Z,90.6
2019-05-17T21:59:04.216Z,90.6
2019-05-17T22:00:06.088Z,90.6
2019-05-17T22:01:07.959Z,90.6
2019-05-17T22:02:09.828Z,90.6
2019-05-17T22:03:11.699Z,90.6
2019-05-17T22:04:13.588Z,90.5
2019-05-17T22:05:15.170Z,90.5
2019-05-17T22:06:17.076Z,90.5
2019-05-17T22:07:18.674Z,90.6
2019-05-17T22:08:20.550Z,90.7
2019-05-17T22:09:22.152Z,90.7
2019-05-17T22:10:23.232Z,90.8
2019-05-17T22:11:25.096Z,90.8
2019-05-17T22:12:26.967Z,91
2019-05-17T22:13:28.846Z,90.9
2019-05-17T22:14:30.742Z,91
2019-05-17T22:15:32.598Z,91.1
2019-05-17T22:16:34.467Z,91.1
2019-05-17T22:17:36.344Z,91.1
2019-05-17T22:18:38.215Z,91.3
2019-05-17T22:19:40.092Z,91.5
2019-05-17T22:20:41.697Z,91.7
2019-05-17T22:21:42.732Z,91.8
2019-05-17T22:22:44.606Z,91.8
2019-05-17T22:23:46.479Z,91.9
2019-05-17T22:24:48.354Z,92
2019-05-17T22:25:50.228Z,92
2019-05-17T22:26:52.107Z,92.1
2019-05-17T22:27:53.977Z,92
2019-05-17T22:28:55.849Z,92
2019-05-17T22:29:57.720Z,92
2019-05-17T22:30:59.589Z,91.9
2019-05-17T22:32:01.189Z,91.8
2019-05-17T22:33:03.080Z,91.7
2019-05-17T22:34:04.967Z,91.6
2019-05-17T22:35:06.821Z,91.7
2019-05-17T22:36:08.406Z,91.6
2019-05-17T22:37:10.295Z,91.6
2019-05-17T22:38:12.165Z,91.7
2019-05-17T22:39:14.042Z,91.7
2019-05-17T22:40:15.911Z,91.7
2019-05-17T22:41:17.781Z,91.7
2019-05-17T22:42:19.679Z,91.6
2019-05-17T22:43:21.323Z,91.7
2019-05-17T22:44:22.360Z,91.8
2019-05-17T22:45:23.946Z,91.7
2019-05-17T22:46:36.670Z,91.6
2019-05-17T22:47:38.611Z,91.5
2019-05-17T22:48:40.481Z,91.6
2019-05-17T22:49:42.360Z,91.5
2019-05-17T22:50:44.228Z,91.6
2019-05-17T22:51:46.105Z,91.6
2019-05-17T22:52:47.974Z,91.7
2019-05-17T22:53:49.631Z,91.7
2019-05-17T22:54:51.547Z,91.8
2019-05-17T22:55:53.149Z,91.8
2019-05-17T22:56:55.020Z,91.9
2019-05-17T22:57:56.881Z,91.9
2019-05-17T22:58:58.749Z,91.9
2019-05-17T23:00:00.619Z,92
2019-05-17T23:01:02.493Z,92
2019-05-17T23:02:04.356Z,92
2019-05-17T23:03:05.933Z,92.1
2019-05-17T23:04:07.824Z,92.1
2019-05-17T23:05:09.679Z,92.1
2019-05-17T23:06:11.554Z,92.1
2019-05-17T23:07:13.421Z,92
2019-05-17T23:08:15.286Z,92
2019-05-17T23:09:16.865Z,92
2019-05-17T23:10:18.751Z,92.1
2019-05-17T23:11:20.619Z,92.1
2019-05-17T23:12:22.491Z,92.1
2019-05-17T23:13:24.359Z,92.2
2019-05-17T23:14:26.225Z,92.1
2019-05-17T23:15:28.095Z,92.2
2019-05-17T23:16:30.069Z,92.2
2019-05-17T23:17:31.935Z,92.2
2019-05-17T23:18:33.804Z,92.3
2019-05-17T23:19:35.672Z,92.4
2019-05-17T23:20:37.559Z,92.3
2019-05-17T23:21:39.423Z,92.3
2019-05-17T23:22:41.371Z,92.4
2019-05-17T23:23:43.249Z,92.2
2019-05-17T23:24:45.118Z,92.2
2019-05-17T23:25:47.117Z,92.2
2019-05-17T23:26:48.994Z,92.2
2019-05-17T23:27:50.286Z,92.1
2019-05-17T23:28:52.161Z,92.1
2019-05-17T23:29:54.026Z,92.2
2019-05-17T23:30:55.893Z,92.2
2019-05-17T23:31:57.762Z,92.2
2019-05-17T23:32:59.631Z,92.1
2019-05-17T23:34:01.499Z,92.2
2019-05-17T23:35:03.369Z,92.3
2019-05-17T23:36:05.234Z,92.3
2019-05-17T23:37:06.827Z,92.4
2019-05-17T23:38:08.724Z,92.4
2019-05-17T23:39:10.655Z,92.5
2019-05-17T23:40:12.508Z,92.5
2019-05-17T23:41:14.418Z,92.5
2019-05-17T23:42:16.286Z,92.5
2019-05-17T23:43:18.162Z,92.5
2019-05-17T23:44:20.034Z,92.6
2019-05-17T23:45:21.613Z,92.6
2019-05-17T23:46:23.484Z,92.6
2019-05-17T23:47:25.352Z,92.7
2019-05-17T23:48:27.221Z,92.8
2019-05-17T23:49:29.112Z,92.7
2019-05-17T23:50:31.019Z,92.8
2019-05-17T23:51:32.610Z,92.7
2019-05-17T23:52:34.475Z,92.7
2019-05-17T23:53:36.341Z,92.7
2019-05-17T23:54:37.930Z,92.7
2019-05-17T23:55:39.526Z,92.7
2019-05-17T23:56:41.116Z,92.6
2019-05-17T23:57:42.985Z,92.8
2019-05-17T23:58:44.854Z,92.9
2019-05-17T23:59:46.717Z,92.8
